Air Navigation Services of Czech Republic
Airport: LKLN Updated:  22.04.2021 15:56:25  UTC
 METAR LKLN 22.04. 16:00 ...
METAR LKLN 221600Z AUTO 36007G17KT 300V080 9999 BKN210 11/M05 Q1020=